createdAt,value
2018-02-18T00:04:37.898Z,11.70
2018-02-18T00:07:08.970Z,12.73
2018-02-18T00:09:40.556Z,12.40
2018-02-18T00:14:56.222Z,11.40
2018-02-18T00:17:26.658Z,10.73
2018-02-18T00:19:56.718Z,11.20
2018-02-18T00:22:26.595Z,11.83
2018-02-18T00:24:56.422Z,10.93
2018-02-18T00:27:31.721Z,10.73
2018-02-18T00:30:02.597Z,9.67
2018-02-18T00:32:32.729Z,13.90
2018-02-18T00:35:02.618Z,13.90
2018-02-18T00:37:32.504Z,10.40
2018-02-18T00:40:02.406Z,9.77
2018-02-18T00:42:32.270Z,10.10
2018-02-18T00:45:03.250Z,10.87
2018-02-18T00:47:33.192Z,11.23
2018-02-18T00:50:03.166Z,10.93
2018-02-18T00:52:34.140Z,10.27
2018-02-18T00:55:04.159Z,10.20
2018-02-18T00:57:34.049Z,10.33
2018-02-18T01:00:04.368Z,10.23
2018-02-18T01:02:34.271Z,11.40
2018-02-18T01:05:04.664Z,9.83
2018-02-18T01:07:35.436Z,8.90
2018-02-18T01:10:05.378Z,10.23
2018-02-18T01:12:35.262Z,9.87
2018-02-18T01:15:05.173Z,8.87
2018-02-18T01:17:35.767Z,8.90
2018-02-18T01:20:05.712Z,9.30
2018-02-18T01:22:35.832Z,10.30
2018-02-18T01:25:05.768Z,9.17
2018-02-18T01:27:35.714Z,10.97
2018-02-18T01:30:06.443Z,9.33
2018-02-18T01:32:36.520Z,10.27
2018-02-18T01:37:55.840Z,8.67
2018-02-18T01:40:25.749Z,8.80
2018-02-18T01:42:55.618Z,10.00
2018-02-18T01:45:25.553Z,9.40
2018-02-18T01:47:57.331Z,9.63
2018-02-18T01:50:38.139Z,9.07
2018-02-18T01:53:09.098Z,8.83
2018-02-18T01:55:38.943Z,9.80
2018-02-18T01:58:09.155Z,9.60
2018-02-18T02:00:39.154Z,11.27
2018-02-18T02:03:09.873Z,10.37
2018-02-18T02:05:41.078Z,11.00
2018-02-18T02:08:10.975Z,10.57
2018-02-18T02:10:40.889Z,9.43
2018-02-18T02:13:11.899Z,10.10
2018-02-18T02:15:42.986Z,10.80
2018-02-18T02:18:12.922Z,9.20
2018-02-18T02:20:42.801Z,11.20
2018-02-18T02:23:12.816Z,12.00
2018-02-18T02:25:42.748Z,8.90
2018-02-18T02:28:12.612Z,9.87
2018-02-18T02:30:42.535Z,10.40
2018-02-18T02:33:12.871Z,10.60
2018-02-18T02:35:43.320Z,9.67
2018-02-18T02:38:14.821Z,9.73
2018-02-18T02:40:45.628Z,9.70
2018-02-18T02:43:15.449Z,8.80
2018-02-18T02:45:45.944Z,9.60
2018-02-18T02:48:15.874Z,9.43
2018-02-18T02:50:47.957Z,10.00
2018-02-18T02:53:19.058Z,9.90
2018-02-18T02:55:49.667Z,9.17
2018-02-18T02:58:19.614Z,11.03
2018-02-18T03:00:51.315Z,9.63
2018-02-18T03:03:22.042Z,9.20
2018-02-18T03:05:53.334Z,9.93
2018-02-18T03:08:23.985Z,8.60
2018-02-18T03:10:54.199Z,10.30
2018-02-18T03:13:24.065Z,10.43
2018-02-18T03:15:54.859Z,8.33
2018-02-18T03:18:24.685Z,11.20
2018-02-18T03:20:55.921Z,8.33
2018-02-18T03:23:26.797Z,8.63
2018-02-18T03:25:57.374Z,10.27
2018-02-18T03:28:28.835Z,9.70
2018-02-18T03:30:58.894Z,8.87
2018-02-18T03:33:29.257Z,9.40
2018-02-18T03:36:04.577Z,8.10
2018-02-18T03:38:35.810Z,9.20
2018-02-18T03:41:11.295Z,8.90
2018-02-18T03:43:48.105Z,10.13
2018-02-18T03:46:19.149Z,9.43
2018-02-18T03:48:52.418Z,8.70
2018-02-18T03:51:23.227Z,8.73
2018-02-18T03:53:53.543Z,9.60
2018-02-18T03:56:23.760Z,10.10
2018-02-18T03:58:54.255Z,9.27
2018-02-18T04:01:24.676Z,8.80
2018-02-18T04:03:55.486Z,8.23
2018-02-18T04:06:25.384Z,8.00
2018-02-18T04:08:55.282Z,9.17
2018-02-18T04:11:26.348Z,10.63
2018-02-18T04:13:57.564Z,10.00
2018-02-18T04:16:27.420Z,8.03
2018-02-18T04:18:57.427Z,8.03
2018-02-18T04:21:27.286Z,8.57
2018-02-18T04:23:57.364Z,9.20
2018-02-18T04:26:27.196Z,8.53
2018-02-18T04:28:57.140Z,9.60
2018-02-18T04:31:26.982Z,8.93
2018-02-18T04:33:56.809Z,7.80
2018-02-18T04:36:26.672Z,9.60
2018-02-18T04:38:57.111Z,9.27
2018-02-18T04:41:26.963Z,8.33
2018-02-18T04:43:56.835Z,8.37
2018-02-18T04:46:26.700Z,9.67
2018-02-18T04:48:57.532Z,8.50
2018-02-18T04:51:27.380Z,8.90
2018-02-18T04:53:57.271Z,7.80
2018-02-18T04:56:27.134Z,8.00
2018-02-18T04:58:57.010Z,7.57
2018-02-18T05:01:26.871Z,7.90
2018-02-18T05:03:56.841Z,8.00
2018-02-18T05:06:26.702Z,7.57
2018-02-18T05:08:56.703Z,7.57
2018-02-18T05:11:26.533Z,6.20
2018-02-18T05:13:56.371Z,7.90
2018-02-18T05:16:26.222Z,7.67
2018-02-18T05:18:56.074Z,7.73
2018-02-18T05:21:25.940Z,7.53
2018-02-18T05:23:55.778Z,7.13
2018-02-18T05:26:25.651Z,7.40
2018-02-18T05:28:55.497Z,6.47
2018-02-18T05:31:25.374Z,7.00
2018-02-18T05:33:55.193Z,7.20
2018-02-18T05:36:25.074Z,7.07
2018-02-18T05:38:54.936Z,7.50
2018-02-18T05:41:25.555Z,6.40
2018-02-18T05:43:55.433Z,7.03
2018-02-18T05:46:26.221Z,6.90
2018-02-18T05:48:56.095Z,7.57
2018-02-18T05:51:25.943Z,7.10
2018-02-18T05:53:55.973Z,7.33
2018-02-18T05:56:25.822Z,6.20
2018-02-18T05:58:55.686Z,7.10
2018-02-18T06:01:25.514Z,6.47
2018-02-18T06:03:55.394Z,6.07
2018-02-18T06:06:25.318Z,7.40
2018-02-18T06:08:55.162Z,7.27
2018-02-18T06:11:25.064Z,6.73
2018-02-18T06:13:54.938Z,7.00
2018-02-18T06:16:24.895Z,7.20
2018-02-18T06:18:54.746Z,6.70
2018-02-18T06:21:24.687Z,7.50
2018-02-18T06:23:54.553Z,7.40
2018-02-18T06:26:24.466Z,6.60
2018-02-18T06:31:30.673Z,7.07
2018-02-18T06:34:00.557Z,6.63
2018-02-18T06:36:30.412Z,7.63
2018-02-18T06:39:00.284Z,6.60
2018-02-18T06:41:30.153Z,6.17
2018-02-18T06:44:00.120Z,7.40
2018-02-18T06:46:29.971Z,6.87
2018-02-18T06:48:59.877Z,7.63
2018-02-18T06:51:29.750Z,7.70
2018-02-18T06:53:59.674Z,6.83
2018-02-18T06:56:29.515Z,7.10
2018-02-18T06:58:59.383Z,7.80
2018-02-18T07:01:29.374Z,7.33
2018-02-18T07:03:59.240Z,7.73
2018-02-18T07:06:29.125Z,7.60
2018-02-18T07:08:58.975Z,7.10
2018-02-18T07:11:28.860Z,7.13
2018-02-18T07:13:58.710Z,8.30
2018-02-18T07:16:28.574Z,8.07
2018-02-18T07:18:58.515Z,7.83
2018-02-18T07:21:28.396Z,7.60
2018-02-18T07:23:58.264Z,7.60
2018-02-18T07:26:28.126Z,8.00
2018-02-18T07:28:58.662Z,8.40
2018-02-18T07:31:28.498Z,7.43
2018-02-18T07:33:58.338Z,7.23
2018-02-18T07:36:28.180Z,8.30
2018-02-18T07:38:58.171Z,8.00
2018-02-18T07:41:28.037Z,7.63
2018-02-18T07:43:58.253Z,7.97
2018-02-18T07:46:28.127Z,7.63
2018-02-18T07:48:58.694Z,8.00
2018-02-18T07:51:28.602Z,6.80
2018-02-18T07:53:58.518Z,7.43
2018-02-18T07:56:28.399Z,7.13
2018-02-18T07:58:58.285Z,6.43
2018-02-18T08:01:28.190Z,7.07
2018-02-18T08:03:58.152Z,6.53
2018-02-18T08:06:28.070Z,8.50
2018-02-18T08:08:57.961Z,6.97
2018-02-18T08:11:27.906Z,6.63
2018-02-18T08:13:57.776Z,6.73
2018-02-18T08:16:27.710Z,5.97
2018-02-18T08:18:58.657Z,5.60
2018-02-18T08:21:28.504Z,5.47
2018-02-18T08:23:58.512Z,6.20
2018-02-18T08:26:28.393Z,5.03
2018-02-18T08:28:58.265Z,5.87
2018-02-18T08:31:28.078Z,5.07
2018-02-18T08:33:57.980Z,4.97
2018-02-18T08:36:27.899Z,5.60
2018-02-18T08:38:57.902Z,4.63
2018-02-18T08:44:04.731Z,5.17
2018-02-18T08:46:34.569Z,3.90
2018-02-18T08:49:05.214Z,4.43
2018-02-18T08:51:35.062Z,4.77
2018-02-18T08:54:04.994Z,5.10
2018-02-18T08:56:34.865Z,5.37
2018-02-18T08:59:04.750Z,3.83
2018-02-18T09:01:34.627Z,5.43
2018-02-18T09:04:04.505Z,4.33
2018-02-18T09:06:34.379Z,4.90
2018-02-18T09:09:04.237Z,3.50
2018-02-18T09:11:34.167Z,4.77
2018-02-18T09:14:04.014Z,4.10
2018-02-18T09:16:33.889Z,4.10
2018-02-18T09:19:03.734Z,4.27
2018-02-18T09:21:33.651Z,3.23
2018-02-18T09:24:03.526Z,3.40
2018-02-18T09:26:33.404Z,3.60
2018-02-18T09:29:03.247Z,4.00
2018-02-18T09:31:33.078Z,4.37
2018-02-18T09:34:03.006Z,3.67
2018-02-18T09:36:32.837Z,4.27
2018-02-18T09:39:02.994Z,4.60
2018-02-18T09:41:32.900Z,3.97
2018-02-18T09:44:02.861Z,3.70
2018-02-18T09:46:32.929Z,4.20
2018-02-18T09:49:02.861Z,4.00
2018-02-18T09:51:37.871Z,3.73
2018-02-18T09:54:07.988Z,4.30
2018-02-18T09:56:38.000Z,6.10
2018-02-18T09:59:07.986Z,4.00
2018-02-18T10:01:37.999Z,3.13
2018-02-18T10:04:07.877Z,3.73
2018-02-18T10:06:37.955Z,3.90
2018-02-18T10:09:07.960Z,3.80
2018-02-18T10:11:37.845Z,3.53
2018-02-18T10:14:07.890Z,3.37
2018-02-18T10:16:37.713Z,3.40
2018-02-18T10:19:07.668Z,2.97
2018-02-18T10:21:37.638Z,3.60
2018-02-18T10:24:07.615Z,3.30
2018-02-18T10:26:37.464Z,3.30
2018-02-18T10:29:07.296Z,3.50
2018-02-18T10:31:37.231Z,3.40
2018-02-18T10:34:07.072Z,4.50
2018-02-18T10:36:36.966Z,3.27
2018-02-18T10:39:06.796Z,3.43
2018-02-18T10:41:36.717Z,3.63
2018-02-18T10:44:06.632Z,3.27
2018-02-18T10:46:36.601Z,3.23
2018-02-18T10:49:06.458Z,4.00
2018-02-18T10:51:36.369Z,2.70
2018-02-18T10:54:09.138Z,2.97
2018-02-18T10:56:39.050Z,3.80
2018-02-18T10:59:09.226Z,4.03
2018-02-18T11:01:39.211Z,2.70
2018-02-18T11:04:09.147Z,3.13
2018-02-18T11:06:39.025Z,3.33
2018-02-18T11:09:08.881Z,3.00
2018-02-18T11:11:38.747Z,4.13
2018-02-18T11:14:08.676Z,3.40
2018-02-18T11:16:38.607Z,3.03
2018-02-18T11:19:08.475Z,4.43
2018-02-18T11:21:38.402Z,3.10
2018-02-18T11:24:08.258Z,3.73
2018-02-18T11:26:38.113Z,4.30
2018-02-18T11:29:07.988Z,3.43
2018-02-18T11:31:37.843Z,3.17
2018-02-18T11:34:07.718Z,2.87
2018-02-18T11:36:37.688Z,4.00
2018-02-18T11:39:07.608Z,3.30
2018-02-18T11:41:38.642Z,4.07
2018-02-18T11:44:08.470Z,3.67
2018-02-18T11:46:38.490Z,3.30
2018-02-18T11:49:08.606Z,3.23
2018-02-18T11:51:38.438Z,3.80
2018-02-18T11:54:08.297Z,4.47
2018-02-18T11:56:38.168Z,4.10
2018-02-18T11:59:08.038Z,3.10
2018-02-18T12:01:37.907Z,3.33
2018-02-18T12:04:07.794Z,4.70
2018-02-18T12:06:37.644Z,2.47
2018-02-18T12:09:07.550Z,5.10
2018-02-18T12:11:37.416Z,4.53
2018-02-18T12:14:07.291Z,4.90
2018-02-18T12:16:37.124Z,4.30
2018-02-18T12:19:06.986Z,5.70
2018-02-18T12:21:36.867Z,5.20
2018-02-18T12:24:06.749Z,4.90
2018-02-18T12:26:36.728Z,5.30
2018-02-18T12:29:06.573Z,6.20
2018-02-18T12:31:36.510Z,6.37
2018-02-18T12:34:06.373Z,6.30
2018-02-18T12:36:36.233Z,7.03
2018-02-18T12:39:06.114Z,7.70
2018-02-18T12:41:36.035Z,5.80
2018-02-18T12:44:05.940Z,6.07
2018-02-18T12:46:35.985Z,6.60
2018-02-18T12:49:05.867Z,7.40
2018-02-18T12:51:35.817Z,7.77
2018-02-18T12:54:06.440Z,8.00
2018-02-18T12:56:36.311Z,6.13
2018-02-18T12:59:06.185Z,6.77
2018-02-18T13:01:36.015Z,6.23
2018-02-18T13:04:05.983Z,6.27
2018-02-18T13:06:35.847Z,6.60
2018-02-18T13:09:05.749Z,6.67
2018-02-18T13:11:36.145Z,6.33
2018-02-18T13:14:06.008Z,5.30
2018-02-18T13:16:36.079Z,6.90
2018-02-18T13:19:06.109Z,6.87
2018-02-18T13:21:36.012Z,6.70
2018-02-18T13:24:06.032Z,5.60
2018-02-18T13:26:35.962Z,7.50
2018-02-18T13:29:06.134Z,6.40
2018-02-18T13:31:36.074Z,6.43
2018-02-18T13:34:06.045Z,6.30
2018-02-18T13:36:36.381Z,6.80
2018-02-18T13:39:06.278Z,5.50
2018-02-18T13:41:36.200Z,6.03
2018-02-18T13:44:06.701Z,7.03
2018-02-18T13:46:36.581Z,6.07
2018-02-18T13:49:06.580Z,5.40
2018-02-18T13:51:36.429Z,7.23
2018-02-18T13:54:06.317Z,6.60
2018-02-18T13:56:36.313Z,5.73
2018-02-18T13:59:06.244Z,6.23
2018-02-18T14:01:36.166Z,6.83
2018-02-18T14:04:06.013Z,5.57
2018-02-18T14:06:35.899Z,6.23
2018-02-18T14:09:05.926Z,6.57
2018-02-18T14:11:35.934Z,6.13
2018-02-18T14:14:05.874Z,6.10
2018-02-18T14:16:35.804Z,5.93
2018-02-18T14:19:05.691Z,5.87
2018-02-18T14:21:35.627Z,6.93
2018-02-18T14:24:05.481Z,6.23
2018-02-18T14:26:35.370Z,7.43
2018-02-18T14:29:05.289Z,5.80
2018-02-18T14:31:35.269Z,5.90
2018-02-18T14:34:05.130Z,6.43
2018-02-18T14:36:35.027Z,6.13
2018-02-18T14:39:04.920Z,6.13
2018-02-18T14:41:46.370Z,6.43
2018-02-18T14:44:28.212Z,5.40
2018-02-18T14:47:23.698Z,6.33
2018-02-18T14:50:05.166Z,6.40
2018-02-18T14:52:46.773Z,6.90
2018-02-18T14:55:28.606Z,6.40
2018-02-18T14:57:58.472Z,6.20
2018-02-18T15:00:28.403Z,6.30
2018-02-18T15:02:58.304Z,6.00
2018-02-18T15:05:28.179Z,6.60
2018-02-18T15:07:58.045Z,6.30
2018-02-18T15:10:27.920Z,7.73
2018-02-18T15:12:57.760Z,6.60
2018-02-18T15:15:27.654Z,5.50
2018-02-18T15:17:57.507Z,6.90
2018-02-18T15:20:27.402Z,6.43
2018-02-18T15:22:57.291Z,5.13
2018-02-18T15:25:27.160Z,6.00
2018-02-18T15:27:57.176Z,6.20
2018-02-18T15:30:27.024Z,7.30
2018-02-18T15:32:56.911Z,5.90
2018-02-18T15:35:26.799Z,6.93
2018-02-18T15:37:56.693Z,6.13
2018-02-18T15:40:26.559Z,6.27
2018-02-18T15:42:56.567Z,6.20
2018-02-18T15:45:27.385Z,6.00
2018-02-18T15:47:58.300Z,5.97
2018-02-18T15:50:28.175Z,6.77
2018-02-18T15:52:58.020Z,6.20
2018-02-18T15:55:27.894Z,6.90
2018-02-18T15:57:57.736Z,7.10
2018-02-18T16:00:27.617Z,6.20
2018-02-18T16:02:57.541Z,7.23
2018-02-18T16:05:27.398Z,6.23
2018-02-18T16:07:57.392Z,6.23
2018-02-18T16:10:27.392Z,6.10
2018-02-18T16:12:57.260Z,6.83
2018-02-18T16:15:28.220Z,7.03
2018-02-18T16:17:58.167Z,8.77
2018-02-18T16:20:28.371Z,6.60
2018-02-18T16:22:58.308Z,6.40
2018-02-18T16:25:28.228Z,7.47
2018-02-18T16:27:58.125Z,7.33
2018-02-18T16:30:27.993Z,7.87
2018-02-18T16:32:57.911Z,6.43
2018-02-18T16:35:27.862Z,7.33
2018-02-18T16:37:57.829Z,8.17
2018-02-18T16:40:28.130Z,6.90
2018-02-18T16:42:58.034Z,7.40
2018-02-18T16:45:28.626Z,7.50
2018-02-18T16:47:58.614Z,7.87
2018-02-18T16:50:28.705Z,7.87
2018-02-18T16:52:58.682Z,7.37
2018-02-18T16:55:28.514Z,7.77
2018-02-18T16:57:58.913Z,7.80
2018-02-18T17:00:28.760Z,8.20
2018-02-18T17:02:59.257Z,7.43
2018-02-18T17:05:29.222Z,8.13
2018-02-18T17:07:59.182Z,8.30
2018-02-18T17:10:29.227Z,6.90
2018-02-18T17:12:59.164Z,7.13
2018-02-18T17:15:29.047Z,7.60
2018-02-18T17:17:59.071Z,7.67
2018-02-18T17:20:28.949Z,8.30
2018-02-18T17:22:58.914Z,7.80
2018-02-18T17:25:28.846Z,8.03
2018-02-18T17:27:58.729Z,8.23
2018-02-18T17:30:28.706Z,7.67
2018-02-18T17:32:58.589Z,9.37
2018-02-18T17:35:28.520Z,9.03
2018-02-18T17:37:58.393Z,7.87
2018-02-18T17:40:28.221Z,8.70
2018-02-18T17:42:58.132Z,8.80
2018-02-18T17:45:28.079Z,8.73
2018-02-18T17:47:58.033Z,10.27
2018-02-18T17:50:27.922Z,9.23
2018-02-18T17:52:57.926Z,9.00
2018-02-18T17:55:27.966Z,8.77
2018-02-18T17:57:58.024Z,9.10
2018-02-18T18:00:27.985Z,7.77
2018-02-18T18:02:57.986Z,8.00
2018-02-18T18:05:27.948Z,8.07
2018-02-18T18:07:57.816Z,8.40
2018-02-18T18:10:27.826Z,7.80
2018-02-18T18:12:57.786Z,6.83
2018-02-18T18:15:27.694Z,8.10
2018-02-18T18:17:57.589Z,8.30
2018-02-18T18:20:27.448Z,8.30
2018-02-18T18:22:57.307Z,8.87
2018-02-18T18:25:27.385Z,8.50
2018-02-18T18:27:57.236Z,8.50
2018-02-18T18:30:27.098Z,8.60
2018-02-18T18:32:57.016Z,8.03
2018-02-18T18:37:20.180Z,8.23
2018-02-18T18:39:50.068Z,8.90
2018-02-18T18:42:19.894Z,8.20
2018-02-18T18:44:49.832Z,9.27
2018-02-18T18:47:19.680Z,9.30
2018-02-18T18:49:49.544Z,7.93
2018-02-18T18:52:19.460Z,9.70
2018-02-18T18:54:49.998Z,8.43
2018-02-18T18:57:19.852Z,9.73
2018-02-18T18:59:49.735Z,7.93
2018-02-18T19:02:19.566Z,9.90
2018-02-18T19:04:49.508Z,9.70
2018-02-18T19:07:19.412Z,9.03
2018-02-18T19:09:49.299Z,10.00
2018-02-18T19:12:19.162Z,9.73
2018-02-18T19:14:49.115Z,9.67
2018-02-18T19:17:18.964Z,9.47
2018-02-18T19:19:48.856Z,9.93
2018-02-18T19:22:18.737Z,9.77
2018-02-18T19:24:48.704Z,11.10
2018-02-18T19:27:18.729Z,10.97
2018-02-18T19:29:48.621Z,10.37
2018-02-18T19:32:18.471Z,10.07
2018-02-18T19:34:48.357Z,10.90
2018-02-18T19:37:18.203Z,10.87
2018-02-18T19:39:48.050Z,9.80
2018-02-18T19:42:17.908Z,9.27
2018-02-18T19:44:47.812Z,11.00
2018-02-18T19:47:17.691Z,10.30
2018-02-18T19:49:47.602Z,10.17
2018-02-18T19:52:17.475Z,10.47
2018-02-18T19:54:47.320Z,10.97
2018-02-18T19:57:17.215Z,9.73
2018-02-18T19:59:47.097Z,10.30
2018-02-18T20:02:16.949Z,10.30
2018-02-18T20:04:46.836Z,10.40
2018-02-18T20:07:16.745Z,10.23
2018-02-18T20:09:46.690Z,9.80
2018-02-18T20:12:16.570Z,10.73
2018-02-18T20:14:46.418Z,11.20
2018-02-18T20:17:17.182Z,11.50
2018-02-18T20:19:47.038Z,12.40
2018-02-18T20:22:16.933Z,12.10
2018-02-18T20:24:46.878Z,10.03
2018-02-18T20:27:16.836Z,10.90
2018-02-18T20:29:46.762Z,12.13
2018-02-18T20:32:16.654Z,9.60
2018-02-18T20:34:46.540Z,11.10
2018-02-18T20:37:16.381Z,11.87
2018-02-18T20:39:46.320Z,12.10
2018-02-18T20:42:16.148Z,11.20
2018-02-18T20:44:46.066Z,10.90
2018-02-18T20:47:15.909Z,11.60
2018-02-18T20:49:45.769Z,14.27
2018-02-18T20:52:15.610Z,12.33
2018-02-18T20:54:45.556Z,11.43
2018-02-18T20:57:15.434Z,12.03
2018-02-18T20:59:45.330Z,12.97
2018-02-18T21:02:15.272Z,11.53
2018-02-18T21:04:45.114Z,10.50
2018-02-18T21:07:15.161Z,12.10
2018-02-18T21:09:45.021Z,11.60
2018-02-18T21:12:15.011Z,12.60
2018-02-18T21:14:44.869Z,13.60
2018-02-18T21:17:14.722Z,12.00
2018-02-18T21:19:44.628Z,12.80
2018-02-18T21:22:14.592Z,12.00
2018-02-18T21:24:44.442Z,12.30
2018-02-18T21:27:14.366Z,11.80
2018-02-18T21:29:44.216Z,12.23
2018-02-18T21:32:14.090Z,12.93
2018-02-18T21:34:44.940Z,12.33
2018-02-18T21:37:14.869Z,11.30
2018-02-18T21:39:44.806Z,11.87
2018-02-18T21:42:14.709Z,12.90
2018-02-18T21:44:44.615Z,12.50
2018-02-18T21:47:14.523Z,11.97
2018-02-18T21:49:45.428Z,13.47
2018-02-18T21:52:17.562Z,12.23
2018-02-18T21:54:47.420Z,11.40
2018-02-18T21:57:17.313Z,11.90
2018-02-18T21:59:47.215Z,11.20
2018-02-18T22:02:17.127Z,12.70
2018-02-18T22:04:46.969Z,12.10
2018-02-18T22:07:16.915Z,13.23
2018-02-18T22:09:47.831Z,10.43
2018-02-18T22:12:17.830Z,12.00
2018-02-18T22:14:47.782Z,11.57
2018-02-18T22:17:17.712Z,11.53
2018-02-18T22:19:47.808Z,11.27
2018-02-18T22:22:17.812Z,11.67
2018-02-18T22:24:47.727Z,12.20
2018-02-18T22:27:17.641Z,12.03
2018-02-18T22:29:47.682Z,13.00
2018-02-18T22:32:17.817Z,13.13
2018-02-18T22:34:47.836Z,14.03
2018-02-18T22:37:17.825Z,13.53
2018-02-18T22:39:47.912Z,12.03
2018-02-18T22:42:17.840Z,12.47
2018-02-18T22:44:47.756Z,13.43
2018-02-18T22:47:17.686Z,12.90
2018-02-18T22:49:47.584Z,13.77
2018-02-18T22:52:17.470Z,12.77
2018-02-18T22:54:47.303Z,13.77
2018-02-18T22:57:17.187Z,13.83
2018-02-18T22:59:47.024Z,14.30
2018-02-18T23:02:16.911Z,12.60
2018-02-18T23:04:46.784Z,12.77
2018-02-18T23:07:16.631Z,14.27
2018-02-18T23:09:46.693Z,13.47
2018-02-18T23:12:16.535Z,13.57
2018-02-18T23:14:46.670Z,14.67
2018-02-18T23:17:16.635Z,14.37
2018-02-18T23:19:46.541Z,15.73
2018-02-18T23:22:16.373Z,16.10
2018-02-18T23:24:46.221Z,13.40
2018-02-18T23:27:16.118Z,14.67
2018-02-18T23:29:45.962Z,14.93
2018-02-18T23:32:15.928Z,16.47
2018-02-18T23:34:45.758Z,14.87
2018-02-18T23:37:15.638Z,14.20
2018-02-18T23:39:45.514Z,15.50
2018-02-18T23:42:15.368Z,15.73
2018-02-18T23:44:45.205Z,14.40
2018-02-18T23:47:15.118Z,14.53
2018-02-18T23:49:45.005Z,16.10
2018-02-18T23:52:14.833Z,14.03
2018-02-18T23:54:44.853Z,16.50
2018-02-18T23:57:14.707Z,15.20
2018-02-18T23:59:44.592Z,15.27
